sensor_id;sensor_type;location;lat;lon;timestamp;P1;durP1;ratioP1;P2;durP2;ratioP2
10985;SDS011;5546;48.714;8.738;2022-12-15T00:01:18;35.13;;;22.77;;
10985;SDS011;5546;48.714;8.738;2022-12-15T00:04:02;39.83;;;24.03;;
10985;SDS011;5546;48.714;8.738;2022-12-15T00:06:47;38.57;;;23.47;;
10985;SDS011;5546;48.714;8.738;2022-12-15T00:09:31;39.33;;;21.87;;
10985;SDS011;5546;48.714;8.738;2022-12-15T00:12:15;37.13;;;22.00;;
10985;SDS011;5546;48.714;8.738;2022-12-15T00:14:59;34.63;;;22.63;;
10985;SDS011;5546;48.714;8.738;2022-12-15T00:17:43;36.93;;;22.50;;
10985;SDS011;5546;48.714;8.738;2022-12-15T00:20:27;38.90;;;23.13;;
10985;SDS011;5546;48.714;8.738;2022-12-15T00:23:11;39.93;;;23.27;;
10985;SDS011;5546;48.714;8.738;2022-12-15T00:25:55;40.27;;;23.30;;
10985;SDS011;5546;48.714;8.738;2022-12-15T00:28:40;33.00;;;22.47;;
10985;SDS011;5546;48.714;8.738;2022-12-15T00:31:24;34.10;;;21.03;;
10985;SDS011;5546;48.714;8.738;2022-12-15T00:34:08;30.10;;;20.00;;
10985;SDS011;5546;48.714;8.738;2022-12-15T00:36:53;32.20;;;21.20;;
10985;SDS011;5546;48.714;8.738;2022-12-15T00:39:37;33.67;;;21.43;;
10985;SDS011;5546;48.714;8.738;2022-12-15T00:42:04;30.80;;;20.50;;
10985;SDS011;5546;48.714;8.738;2022-12-15T00:44:30;31.27;;;21.20;;
10985;SDS011;5546;48.714;8.738;2022-12-15T00:46:56;32.37;;;20.50;;
10985;SDS011;5546;48.714;8.738;2022-12-15T00:49:25;33.27;;;21.37;;
10985;SDS011;5546;48.714;8.738;2022-12-15T00:52:12;33.13;;;20.07;;
10985;SDS011;5546;48.714;8.738;2022-12-15T00:54:57;30.53;;;20.07;;
10985;SDS011;5546;48.714;8.738;2022-12-15T00:57:41;32.30;;;21.03;;
10985;SDS011;5546;48.714;8.738;2022-12-15T01:00:25;32.80;;;21.13;;
10985;SDS011;5546;48.714;8.738;2022-12-15T01:03:20;33.73;;;21.50;;
10985;SDS011;5546;48.714;8.738;2022-12-15T01:06:07;33.80;;;20.53;;
10985;SDS011;5546;48.714;8.738;2022-12-15T01:08:52;31.00;;;20.43;;
10985;SDS011;5546;48.714;8.738;2022-12-15T01:11:36;30.43;;;20.73;;
10985;SDS011;5546;48.714;8.738;2022-12-15T01:14:21;33.60;;;21.53;;
10985;SDS011;5546;48.714;8.738;2022-12-15T01:17:05;35.33;;;21.47;;
10985;SDS011;5546;48.714;8.738;2022-12-15T01:19:50;32.33;;;20.90;;
10985;SDS011;5546;48.714;8.738;2022-12-15T01:22:37;34.47;;;21.93;;
10985;SDS011;5546;48.714;8.738;2022-12-15T01:25:04;30.83;;;20.90;;
10985;SDS011;5546;48.714;8.738;2022-12-15T01:27:30;34.40;;;21.90;;
10985;SDS011;5546;48.714;8.738;2022-12-15T01:29:56;33.70;;;20.73;;
10985;SDS011;5546;48.714;8.738;2022-12-15T01:32:21;34.20;;;20.57;;
10985;SDS011;5546;48.714;8.738;2022-12-15T01:34:47;34.37;;;21.97;;
10985;SDS011;5546;48.714;8.738;2022-12-15T01:37:12;31.10;;;19.97;;
10985;SDS011;5546;48.714;8.738;2022-12-15T01:39:38;35.17;;;21.97;;
10985;SDS011;5546;48.714;8.738;2022-12-15T01:42:22;33.40;;;21.67;;
10985;SDS011;5546;48.714;8.738;2022-12-15T01:44:49;36.07;;;21.23;;
10985;SDS011;5546;48.714;8.738;2022-12-15T01:47:16;39.77;;;23.17;;
10985;SDS011;5546;48.714;8.738;2022-12-15T01:49:45;79.17;;;39.93;;
10985;SDS011;5546;48.714;8.738;2022-12-15T01:52:12;49.97;;;26.80;;
10985;SDS011;5546;48.714;8.738;2022-12-15T01:54:46;38.20;;;22.67;;
10985;SDS011;5546;48.714;8.738;2022-12-15T01:57:16;38.40;;;23.70;;
10985;SDS011;5546;48.714;8.738;2022-12-15T01:59:48;33.07;;;21.43;;
10985;SDS011;5546;48.714;8.738;2022-12-15T02:02:17;33.83;;;21.70;;
10985;SDS011;5546;48.714;8.738;2022-12-15T02:04:46;40.57;;;21.80;;
10985;SDS011;5546;48.714;8.738;2022-12-15T02:07:14;34.67;;;21.57;;
10985;SDS011;5546;48.714;8.738;2022-12-15T02:09:40;33.87;;;21.17;;
10985;SDS011;5546;48.714;8.738;2022-12-15T02:18:00;35.70;;;21.73;;
10985;SDS011;5546;48.714;8.738;2022-12-15T02:31:59;35.47;;;21.23;;
10985;SDS011;5546;48.714;8.738;2022-12-15T02:34:33;38.63;;;23.33;;
10985;SDS011;5546;48.714;8.738;2022-12-15T02:37:37;35.83;;;21.27;;
10985;SDS011;5546;48.714;8.738;2022-12-15T02:40:04;38.33;;;23.03;;
10985;SDS011;5546;48.714;8.738;2022-12-15T02:42:32;34.83;;;21.90;;
10985;SDS011;5546;48.714;8.738;2022-12-15T02:45:04;49.13;;;25.57;;
10985;SDS011;5546;48.714;8.738;2022-12-15T02:47:36;34.87;;;21.83;;
10985;SDS011;5546;48.714;8.738;2022-12-15T02:50:33;38.00;;;22.17;;
10985;SDS011;5546;48.714;8.738;2022-12-15T03:01:25;34.00;;;21.70;;
10985;SDS011;5546;48.714;8.738;2022-12-15T03:03:57;34.73;;;21.20;;
10985;SDS011;5546;48.714;8.738;2022-12-15T03:06:26;31.77;;;20.73;;
10985;SDS011;5546;48.714;8.738;2022-12-15T03:08:52;34.57;;;21.43;;
10985;SDS011;5546;48.714;8.738;2022-12-15T03:11:18;36.27;;;22.30;;
10985;SDS011;5546;48.714;8.738;2022-12-15T03:13:43;35.60;;;22.33;;
10985;SDS011;5546;48.714;8.738;2022-12-15T03:16:09;40.07;;;23.57;;
10985;SDS011;5546;48.714;8.738;2022-12-15T03:18:34;40.40;;;23.37;;
10985;SDS011;5546;48.714;8.738;2022-12-15T03:21:00;35.63;;;22.37;;
10985;SDS011;5546;48.714;8.738;2022-12-15T03:23:25;36.43;;;22.87;;
10985;SDS011;5546;48.714;8.738;2022-12-15T03:25:51;36.97;;;22.93;;
10985;SDS011;5546;48.714;8.738;2022-12-15T03:28:16;36.37;;;22.17;;
10985;SDS011;5546;48.714;8.738;2022-12-15T03:30:42;34.50;;;21.87;;
10985;SDS011;5546;48.714;8.738;2022-12-15T03:33:08;38.17;;;22.40;;
10985;SDS011;5546;48.714;8.738;2022-12-15T03:35:34;37.60;;;21.87;;
10985;SDS011;5546;48.714;8.738;2022-12-15T03:37:59;52.37;;;28.33;;
10985;SDS011;5546;48.714;8.738;2022-12-15T03:40:25;43.43;;;25.70;;
10985;SDS011;5546;48.714;8.738;2022-12-15T03:42:50;37.97;;;23.80;;
10985;SDS011;5546;48.714;8.738;2022-12-15T03:45:26;35.53;;;22.13;;
10985;SDS011;5546;48.714;8.738;2022-12-15T03:47:53;35.50;;;26.20;;
10985;SDS011;5546;48.714;8.738;2022-12-15T03:50:20;36.13;;;21.30;;
10985;SDS011;5546;48.714;8.738;2022-12-15T03:52:48;48.07;;;34.47;;
10985;SDS011;5546;48.714;8.738;2022-12-15T03:55:16;35.30;;;21.57;;
10985;SDS011;5546;48.714;8.738;2022-12-15T03:57:42;34.23;;;21.33;;
10985;SDS011;5546;48.714;8.738;2022-12-15T04:00:10;34.73;;;21.73;;
10985;SDS011;5546;48.714;8.738;2022-12-15T04:02:38;35.80;;;21.77;;
10985;SDS011;5546;48.714;8.738;2022-12-15T04:05:05;33.03;;;20.90;;
10985;SDS011;5546;48.714;8.738;2022-12-15T04:07:31;32.57;;;20.90;;
10985;SDS011;5546;48.714;8.738;2022-12-15T04:09:56;29.77;;;19.57;;
10985;SDS011;5546;48.714;8.738;2022-12-15T04:12:22;31.07;;;20.00;;
10985;SDS011;5546;48.714;8.738;2022-12-15T04:14:47;31.53;;;20.60;;
10985;SDS011;5546;48.714;8.738;2022-12-15T04:17:13;30.90;;;20.57;;
10985;SDS011;5546;48.714;8.738;2022-12-15T04:19:39;35.67;;;21.23;;
10985;SDS011;5546;48.714;8.738;2022-12-15T04:22:22;36.77;;;22.67;;
10985;SDS011;5546;48.714;8.738;2022-12-15T04:24:48;36.80;;;22.63;;
10985;SDS011;5546;48.714;8.738;2022-12-15T04:27:33;39.33;;;23.40;;
10985;SDS011;5546;48.714;8.738;2022-12-15T04:30:17;34.27;;;20.93;;
10985;SDS011;5546;48.714;8.738;2022-12-15T04:33:01;34.17;;;21.13;;
10985;SDS011;5546;48.714;8.738;2022-12-15T04:35:46;34.60;;;20.67;;
10985;SDS011;5546;48.714;8.738;2022-12-15T04:38:32;37.60;;;22.37;;
10985;SDS011;5546;48.714;8.738;2022-12-15T04:41:16;34.37;;;21.00;;
10985;SDS011;5546;48.714;8.738;2022-12-15T04:44:01;38.33;;;22.10;;
10985;SDS011;5546;48.714;8.738;2022-12-15T04:46:46;35.90;;;22.50;;
10985;SDS011;5546;48.714;8.738;2022-12-15T04:49:30;37.50;;;22.00;;
10985;SDS011;5546;48.714;8.738;2022-12-15T04:52:15;36.23;;;22.83;;
10985;SDS011;5546;48.714;8.738;2022-12-15T04:54:58;36.67;;;22.73;;
10985;SDS011;5546;48.714;8.738;2022-12-15T04:57:43;39.33;;;23.03;;
10985;SDS011;5546;48.714;8.738;2022-12-15T05:00:27;51.73;;;27.87;;
10985;SDS011;5546;48.714;8.738;2022-12-15T05:03:11;38.07;;;23.60;;
10985;SDS011;5546;48.714;8.738;2022-12-15T05:05:56;35.70;;;22.43;;
10985;SDS011;5546;48.714;8.738;2022-12-15T05:08:40;35.20;;;22.20;;
10985;SDS011;5546;48.714;8.738;2022-12-15T05:11:24;51.37;;;30.10;;
10985;SDS011;5546;48.714;8.738;2022-12-15T05:14:08;67.20;;;32.40;;
10985;SDS011;5546;48.714;8.738;2022-12-15T05:16:52;35.00;;;22.23;;
10985;SDS011;5546;48.714;8.738;2022-12-15T05:19:36;34.13;;;21.43;;
10985;SDS011;5546;48.714;8.738;2022-12-15T05:22:20;42.83;;;24.83;;
10985;SDS011;5546;48.714;8.738;2022-12-15T05:25:04;40.50;;;24.87;;
10985;SDS011;5546;48.714;8.738;2022-12-15T05:27:48;44.77;;;24.60;;
10985;SDS011;5546;48.714;8.738;2022-12-15T05:30:32;35.43;;;21.90;;
10985;SDS011;5546;48.714;8.738;2022-12-15T05:33:16;33.47;;;20.57;;
10985;SDS011;5546;48.714;8.738;2022-12-15T05:35:42;33.63;;;21.90;;
10985;SDS011;5546;48.714;8.738;2022-12-15T05:38:07;35.90;;;22.90;;
10985;SDS011;5546;48.714;8.738;2022-12-15T05:40:33;40.53;;;23.57;;
10985;SDS011;5546;48.714;8.738;2022-12-15T05:42:58;35.87;;;22.90;;
10985;SDS011;5546;48.714;8.738;2022-12-15T05:45:25;36.67;;;21.97;;
10985;SDS011;5546;48.714;8.738;2022-12-15T05:47:52;34.07;;;21.90;;
10985;SDS011;5546;48.714;8.738;2022-12-15T05:50:18;34.80;;;21.80;;
10985;SDS011;5546;48.714;8.738;2022-12-15T05:52:44;49.23;;;28.50;;
10985;SDS011;5546;48.714;8.738;2022-12-15T05:55:10;42.17;;;24.60;;
10985;SDS011;5546;48.714;8.738;2022-12-15T05:57:36;38.53;;;23.40;;
10985;SDS011;5546;48.714;8.738;2022-12-15T06:00:02;32.60;;;22.33;;
10985;SDS011;5546;48.714;8.738;2022-12-15T06:02:29;38.37;;;24.77;;
10985;SDS011;5546;48.714;8.738;2022-12-15T06:04:54;36.03;;;22.83;;
10985;SDS011;5546;48.714;8.738;2022-12-15T06:07:20;36.20;;;22.77;;
10985;SDS011;5546;48.714;8.738;2022-12-15T06:09:45;36.17;;;22.07;;
10985;SDS011;5546;48.714;8.738;2022-12-15T06:12:11;37.57;;;22.97;;
10985;SDS011;5546;48.714;8.738;2022-12-15T06:14:36;37.97;;;21.17;;
10985;SDS011;5546;48.714;8.738;2022-12-15T06:17:02;34.90;;;22.23;;
10985;SDS011;5546;48.714;8.738;2022-12-15T06:19:27;36.50;;;22.43;;
10985;SDS011;5546;48.714;8.738;2022-12-15T06:21:53;35.73;;;21.90;;
10985;SDS011;5546;48.714;8.738;2022-12-15T06:24:19;37.73;;;21.67;;
10985;SDS011;5546;48.714;8.738;2022-12-15T06:26:44;37.67;;;22.03;;
10985;SDS011;5546;48.714;8.738;2022-12-15T06:29:11;38.43;;;23.57;;
10985;SDS011;5546;48.714;8.738;2022-12-15T06:31:37;35.53;;;22.03;;
10985;SDS011;5546;48.714;8.738;2022-12-15T06:34:04;38.67;;;23.10;;
10985;SDS011;5546;48.714;8.738;2022-12-15T06:36:32;37.13;;;21.97;;
10985;SDS011;5546;48.714;8.738;2022-12-15T06:38:58;35.60;;;22.00;;
10985;SDS011;5546;48.714;8.738;2022-12-15T06:41:25;38.73;;;22.03;;
10985;SDS011;5546;48.714;8.738;2022-12-15T06:43:51;38.50;;;22.57;;
10985;SDS011;5546;48.714;8.738;2022-12-15T06:46:19;35.17;;;22.00;;
10985;SDS011;5546;48.714;8.738;2022-12-15T06:48:46;39.13;;;23.30;;
10985;SDS011;5546;48.714;8.738;2022-12-15T06:51:12;39.17;;;22.20;;
10985;SDS011;5546;48.714;8.738;2022-12-15T06:53:39;45.60;;;26.00;;
10985;SDS011;5546;48.714;8.738;2022-12-15T06:56:07;39.43;;;23.47;;
10985;SDS011;5546;48.714;8.738;2022-12-15T06:58:43;36.67;;;22.93;;
10985;SDS011;5546;48.714;8.738;2022-12-15T07:01:09;40.27;;;25.77;;
10985;SDS011;5546;48.714;8.738;2022-12-15T07:03:35;45.00;;;26.47;;
10985;SDS011;5546;48.714;8.738;2022-12-15T07:06:02;45.23;;;27.57;;
10985;SDS011;5546;48.714;8.738;2022-12-15T07:08:32;46.73;;;25.03;;
10985;SDS011;5546;48.714;8.738;2022-12-15T07:10:58;50.07;;;27.80;;
10985;SDS011;5546;48.714;8.738;2022-12-15T07:13:24;45.03;;;27.33;;
10985;SDS011;5546;48.714;8.738;2022-12-15T07:15:49;43.03;;;26.10;;
10985;SDS011;5546;48.714;8.738;2022-12-15T07:18:15;40.53;;;25.67;;
10985;SDS011;5546;48.714;8.738;2022-12-15T07:20:41;46.33;;;27.27;;
10985;SDS011;5546;48.714;8.738;2022-12-15T07:23:08;48.20;;;26.60;;
10985;SDS011;5546;48.714;8.738;2022-12-15T07:25:36;42.60;;;25.63;;
10985;SDS011;5546;48.714;8.738;2022-12-15T07:28:03;39.70;;;23.93;;
10985;SDS011;5546;48.714;8.738;2022-12-15T07:30:29;46.47;;;23.93;;
10985;SDS011;5546;48.714;8.738;2022-12-15T07:32:55;37.03;;;22.53;;
10985;SDS011;5546;48.714;8.738;2022-12-15T07:35:20;40.40;;;23.30;;
10985;SDS011;5546;48.714;8.738;2022-12-15T07:37:46;40.87;;;23.23;;
10985;SDS011;5546;48.714;8.738;2022-12-15T07:40:12;44.07;;;24.87;;
10985;SDS011;5546;48.714;8.738;2022-12-15T07:42:37;38.43;;;23.40;;
10985;SDS011;5546;48.714;8.738;2022-12-15T07:45:03;35.70;;;23.50;;
10985;SDS011;5546;48.714;8.738;2022-12-15T07:47:30;39.20;;;23.07;;
10985;SDS011;5546;48.714;8.738;2022-12-15T07:49:55;40.57;;;24.97;;
10985;SDS011;5546;48.714;8.738;2022-12-15T07:52:21;46.03;;;24.53;;
10985;SDS011;5546;48.714;8.738;2022-12-15T07:54:47;42.03;;;24.53;;
10985;SDS011;5546;48.714;8.738;2022-12-15T07:57:13;39.63;;;23.63;;
10985;SDS011;5546;48.714;8.738;2022-12-15T07:59:38;39.50;;;24.83;;
10985;SDS011;5546;48.714;8.738;2022-12-15T08:02:04;39.33;;;23.80;;
10985;SDS011;5546;48.714;8.738;2022-12-15T08:04:29;35.67;;;23.47;;
10985;SDS011;5546;48.714;8.738;2022-12-15T08:06:56;35.93;;;22.93;;
10985;SDS011;5546;48.714;8.738;2022-12-15T08:09:22;39.20;;;23.50;;
10985;SDS011;5546;48.714;8.738;2022-12-15T08:11:48;36.10;;;22.27;;
10985;SDS011;5546;48.714;8.738;2022-12-15T08:14:14;34.73;;;21.20;;
10985;SDS011;5546;48.714;8.738;2022-12-15T08:16:40;36.47;;;22.03;;
10985;SDS011;5546;48.714;8.738;2022-12-15T08:19:06;36.77;;;22.70;;
10985;SDS011;5546;48.714;8.738;2022-12-15T08:21:35;40.97;;;23.90;;
10985;SDS011;5546;48.714;8.738;2022-12-15T08:24:03;39.93;;;24.83;;
10985;SDS011;5546;48.714;8.738;2022-12-15T08:26:29;42.63;;;25.33;;
10985;SDS011;5546;48.714;8.738;2022-12-15T08:28:55;38.57;;;24.87;;
10985;SDS011;5546;48.714;8.738;2022-12-15T08:31:21;40.07;;;24.10;;
10985;SDS011;5546;48.714;8.738;2022-12-15T08:33:48;39.20;;;23.63;;
10985;SDS011;5546;48.714;8.738;2022-12-15T08:36:15;39.67;;;23.53;;
10985;SDS011;5546;48.714;8.738;2022-12-15T08:38:42;38.07;;;23.90;;
10985;SDS011;5546;48.714;8.738;2022-12-15T08:41:16;39.40;;;23.23;;
10985;SDS011;5546;48.714;8.738;2022-12-15T08:43:42;39.43;;;25.50;;
10985;SDS011;5546;48.714;8.738;2022-12-15T08:46:08;34.63;;;22.07;;
10985;SDS011;5546;48.714;8.738;2022-12-15T08:48:34;35.50;;;23.77;;
10985;SDS011;5546;48.714;8.738;2022-12-15T08:51:00;38.73;;;22.23;;
10985;SDS011;5546;48.714;8.738;2022-12-15T08:53:26;35.60;;;22.80;;
10985;SDS011;5546;48.714;8.738;2022-12-15T08:55:52;35.87;;;22.00;;
10985;SDS011;5546;48.714;8.738;2022-12-15T08:58:18;34.33;;;21.83;;
10985;SDS011;5546;48.714;8.738;2022-12-15T09:00:44;35.20;;;22.47;;
10985;SDS011;5546;48.714;8.738;2022-12-15T09:03:09;33.03;;;21.87;;
10985;SDS011;5546;48.714;8.738;2022-12-15T09:05:35;39.17;;;22.50;;
10985;SDS011;5546;48.714;8.738;2022-12-15T09:08:02;35.17;;;22.00;;
10985;SDS011;5546;48.714;8.738;2022-12-15T09:10:27;35.33;;;23.03;;
10985;SDS011;5546;48.714;8.738;2022-12-15T09:12:53;30.60;;;21.23;;
10985;SDS011;5546;48.714;8.738;2022-12-15T09:15:18;39.57;;;23.60;;
10985;SDS011;5546;48.714;8.738;2022-12-15T09:17:44;56.20;;;31.80;;
10985;SDS011;5546;48.714;8.738;2022-12-15T09:20:10;31.67;;;21.63;;
10985;SDS011;5546;48.714;8.738;2022-12-15T09:22:36;45.47;;;27.97;;
10985;SDS011;5546;48.714;8.738;2022-12-15T09:25:02;42.43;;;28.70;;
10985;SDS011;5546;48.714;8.738;2022-12-15T09:27:28;46.33;;;35.53;;
10985;SDS011;5546;48.714;8.738;2022-12-15T09:29:58;32.70;;;23.23;;
10985;SDS011;5546;48.714;8.738;2022-12-15T09:32:23;30.73;;;22.13;;
10985;SDS011;5546;48.714;8.738;2022-12-15T09:34:49;34.90;;;22.30;;
10985;SDS011;5546;48.714;8.738;2022-12-15T09:37:15;35.60;;;22.60;;
10985;SDS011;5546;48.714;8.738;2022-12-15T09:39:42;30.03;;;21.20;;
10985;SDS011;5546;48.714;8.738;2022-12-15T09:45:06;31.77;;;20.93;;
10985;SDS011;5546;48.714;8.738;2022-12-15T09:47:40;30.47;;;20.90;;
10985;SDS011;5546;48.714;8.738;2022-12-15T09:50:25;31.20;;;20.43;;
10985;SDS011;5546;48.714;8.738;2022-12-15T09:52:56;35.60;;;20.73;;
10985;SDS011;5546;48.714;8.738;2022-12-15T09:55:23;33.37;;;21.13;;
10985;SDS011;5546;48.714;8.738;2022-12-15T09:58:03;32.93;;;20.93;;
10985;SDS011;5546;48.714;8.738;2022-12-15T10:00:42;33.10;;;21.63;;
10985;SDS011;5546;48.714;8.738;2022-12-15T10:06:01;34.80;;;21.93;;
10985;SDS011;5546;48.714;8.738;2022-12-15T10:08:36;30.33;;;19.93;;
10985;SDS011;5546;48.714;8.738;2022-12-15T10:11:32;29.60;;;20.43;;
10985;SDS011;5546;48.714;8.738;2022-12-15T10:14:03;31.70;;;21.10;;
10985;SDS011;5546;48.714;8.738;2022-12-15T10:16:46;31.60;;;21.60;;
10985;SDS011;5546;48.714;8.738;2022-12-15T10:19:22;31.10;;;21.50;;
10985;SDS011;5546;48.714;8.738;2022-12-15T10:21:55;32.00;;;21.77;;
10985;SDS011;5546;48.714;8.738;2022-12-15T10:24:22;32.73;;;20.53;;
10985;SDS011;5546;48.714;8.738;2022-12-15T10:26:52;32.50;;;21.57;;
10985;SDS011;5546;48.714;8.738;2022-12-15T10:32:02;39.00;;;23.27;;
10985;SDS011;5546;48.714;8.738;2022-12-15T10:34:31;33.93;;;22.33;;
10985;SDS011;5546;48.714;8.738;2022-12-15T10:36:59;36.97;;;22.87;;
10985;SDS011;5546;48.714;8.738;2022-12-15T10:39:38;35.97;;;22.33;;
10985;SDS011;5546;48.714;8.738;2022-12-15T10:42:24;32.53;;;22.60;;
10985;SDS011;5546;48.714;8.738;2022-12-15T10:44:54;36.67;;;24.30;;
10985;SDS011;5546;48.714;8.738;2022-12-15T10:49:55;38.63;;;24.13;;
10985;SDS011;5546;48.714;8.738;2022-12-15T10:52:42;33.70;;;23.20;;
10985;SDS011;5546;48.714;8.738;2022-12-15T10:57:59;35.53;;;22.57;;
10985;SDS011;5546;48.714;8.738;2022-12-15T11:00:27;33.07;;;21.23;;
10985;SDS011;5546;48.714;8.738;2022-12-15T11:02:54;35.27;;;22.63;;
10985;SDS011;5546;48.714;8.738;2022-12-15T11:05:21;34.97;;;23.73;;
10985;SDS011;5546;48.714;8.738;2022-12-15T11:07:51;35.47;;;22.60;;
10985;SDS011;5546;48.714;8.738;2022-12-15T11:17:55;37.17;;;23.87;;
10985;SDS011;5546;48.714;8.738;2022-12-15T11:20:22;39.93;;;24.33;;
10985;SDS011;5546;48.714;8.738;2022-12-15T11:23:00;34.93;;;24.30;;
10985;SDS011;5546;48.714;8.738;2022-12-15T11:25:48;36.27;;;22.60;;
10985;SDS011;5546;48.714;8.738;2022-12-15T11:28:41;34.93;;;23.13;;
10985;SDS011;5546;48.714;8.738;2022-12-15T11:31:11;39.10;;;23.93;;
10985;SDS011;5546;48.714;8.738;2022-12-15T11:33:39;39.03;;;24.57;;
10985;SDS011;5546;48.714;8.738;2022-12-15T11:38:50;40.77;;;24.93;;
10985;SDS011;5546;48.714;8.738;2022-12-15T11:41:34;40.93;;;24.50;;
10985;SDS011;5546;48.714;8.738;2022-12-15T11:44:29;39.10;;;24.27;;
10985;SDS011;5546;48.714;8.738;2022-12-15T11:47:19;47.10;;;25.33;;
10985;SDS011;5546;48.714;8.738;2022-12-15T11:50:00;43.30;;;25.90;;
10985;SDS011;5546;48.714;8.738;2022-12-15T11:58:44;40.23;;;24.60;;
10985;SDS011;5546;48.714;8.738;2022-12-15T12:01:28;40.10;;;23.70;;
10985;SDS011;5546;48.714;8.738;2022-12-15T12:06:50;39.77;;;26.13;;
10985;SDS011;5546;48.714;8.738;2022-12-15T12:09:28;39.63;;;24.73;;
10985;SDS011;5546;48.714;8.738;2022-12-15T12:12:06;40.20;;;25.57;;
10985;SDS011;5546;48.714;8.738;2022-12-15T12:20:02;50.53;;;29.10;;
10985;SDS011;5546;48.714;8.738;2022-12-15T12:22:41;41.67;;;26.57;;
10985;SDS011;5546;48.714;8.738;2022-12-15T12:25:34;43.60;;;28.73;;
10985;SDS011;5546;48.714;8.738;2022-12-15T12:28:19;42.67;;;25.43;;
10985;SDS011;5546;48.714;8.738;2022-12-15T12:30:51;43.77;;;25.27;;
10985;SDS011;5546;48.714;8.738;2022-12-15T12:33:34;45.63;;;27.53;;
10985;SDS011;5546;48.714;8.738;2022-12-15T12:36:09;45.10;;;27.13;;
10985;SDS011;5546;48.714;8.738;2022-12-15T12:38:44;42.27;;;26.40;;
10985;SDS011;5546;48.714;8.738;2022-12-15T12:41:15;45.60;;;28.30;;
10985;SDS011;5546;48.714;8.738;2022-12-15T12:43:54;48.50;;;27.23;;
10985;SDS011;5546;48.714;8.738;2022-12-15T12:51:55;47.77;;;28.03;;
10985;SDS011;5546;48.714;8.738;2022-12-15T12:57:27;49.07;;;28.80;;
10985;SDS011;5546;48.714;8.738;2022-12-15T13:05:44;46.53;;;29.03;;
10985;SDS011;5546;48.714;8.738;2022-12-15T13:10:38;48.30;;;29.87;;
10985;SDS011;5546;48.714;8.738;2022-12-15T13:13:15;49.70;;;30.20;;
10985;SDS011;5546;48.714;8.738;2022-12-15T13:18:56;50.10;;;28.83;;
10985;SDS011;5546;48.714;8.738;2022-12-15T13:29:35;46.03;;;27.60;;
10985;SDS011;5546;48.714;8.738;2022-12-15T13:32:36;41.93;;;25.73;;
10985;SDS011;5546;48.714;8.738;2022-12-15T13:40:59;53.03;;;29.93;;
10985;SDS011;5546;48.714;8.738;2022-12-15T13:45:58;52.90;;;28.97;;
10985;SDS011;5546;48.714;8.738;2022-12-15T13:48:35;49.10;;;28.63;;
10985;SDS011;5546;48.714;8.738;2022-12-15T13:51:11;49.87;;;27.40;;
10985;SDS011;5546;48.714;8.738;2022-12-15T13:53:45;45.33;;;25.93;;
10985;SDS011;5546;48.714;8.738;2022-12-15T13:56:36;49.37;;;26.03;;
10985;SDS011;5546;48.714;8.738;2022-12-15T13:59:15;49.70;;;28.27;;
10985;SDS011;5546;48.714;8.738;2022-12-15T14:01:53;52.83;;;29.17;;
10985;SDS011;5546;48.714;8.738;2022-12-15T14:04:19;47.33;;;26.77;;
10985;SDS011;5546;48.714;8.738;2022-12-15T14:06:52;49.67;;;27.53;;
10985;SDS011;5546;48.714;8.738;2022-12-15T14:09:24;47.40;;;27.53;;
10985;SDS011;5546;48.714;8.738;2022-12-15T14:11:54;51.37;;;28.23;;
10985;SDS011;5546;48.714;8.738;2022-12-15T14:14:25;52.70;;;28.53;;
10985;SDS011;5546;48.714;8.738;2022-12-15T14:16:55;54.97;;;30.50;;
10985;SDS011;5546;48.714;8.738;2022-12-15T14:19:23;53.43;;;29.17;;
10985;SDS011;5546;48.714;8.738;2022-12-15T14:21:53;49.97;;;28.87;;
10985;SDS011;5546;48.714;8.738;2022-12-15T14:24:21;48.07;;;29.23;;
10985;SDS011;5546;48.714;8.738;2022-12-15T14:26:49;51.33;;;28.97;;
10985;SDS011;5546;48.714;8.738;2022-12-15T14:29:14;48.07;;;30.87;;
10985;SDS011;5546;48.714;8.738;2022-12-15T14:31:41;54.23;;;28.37;;
10985;SDS011;5546;48.714;8.738;2022-12-15T14:34:12;49.57;;;27.67;;
10985;SDS011;5546;48.714;8.738;2022-12-15T14:36:43;50.20;;;26.90;;
10985;SDS011;5546;48.714;8.738;2022-12-15T14:39:18;48.57;;;29.03;;
10985;SDS011;5546;48.714;8.738;2022-12-15T14:41:51;52.70;;;27.53;;
10985;SDS011;5546;48.714;8.738;2022-12-15T14:46:45;48.03;;;27.93;;
10985;SDS011;5546;48.714;8.738;2022-12-15T14:49:15;50.73;;;28.07;;
10985;SDS011;5546;48.714;8.738;2022-12-15T14:51:45;49.10;;;28.67;;
10985;SDS011;5546;48.714;8.738;2022-12-15T14:54:25;50.07;;;28.80;;
10985;SDS011;5546;48.714;8.738;2022-12-15T14:57:15;54.63;;;30.53;;
10985;SDS011;5546;48.714;8.738;2022-12-15T14:59:46;53.07;;;30.27;;
10985;SDS011;5546;48.714;8.738;2022-12-15T15:02:28;53.40;;;31.37;;
10985;SDS011;5546;48.714;8.738;2022-12-15T15:05:01;52.77;;;30.60;;
10985;SDS011;5546;48.714;8.738;2022-12-15T15:07:29;49.63;;;27.97;;
10985;SDS011;5546;48.714;8.738;2022-12-15T15:09:56;53.87;;;30.30;;
10985;SDS011;5546;48.714;8.738;2022-12-15T15:12:23;54.53;;;30.40;;
10985;SDS011;5546;48.714;8.738;2022-12-15T15:14:53;58.10;;;31.57;;
10985;SDS011;5546;48.714;8.738;2022-12-15T15:17:23;54.63;;;27.37;;
10985;SDS011;5546;48.714;8.738;2022-12-15T15:19:56;52.20;;;28.97;;
10985;SDS011;5546;48.714;8.738;2022-12-15T15:24:57;51.90;;;29.37;;
10985;SDS011;5546;48.714;8.738;2022-12-15T15:27:40;49.60;;;28.90;;
10985;SDS011;5546;48.714;8.738;2022-12-15T15:30:19;56.77;;;28.70;;
10985;SDS011;5546;48.714;8.738;2022-12-15T15:35:16;49.73;;;28.77;;
10985;SDS011;5546;48.714;8.738;2022-12-15T15:37:42;49.90;;;27.60;;
10985;SDS011;5546;48.714;8.738;2022-12-15T15:40:09;53.83;;;30.00;;
10985;SDS011;5546;48.714;8.738;2022-12-15T15:42:36;53.30;;;28.33;;
10985;SDS011;5546;48.714;8.738;2022-12-15T15:45:02;49.73;;;27.83;;
10985;SDS011;5546;48.714;8.738;2022-12-15T15:47:28;48.03;;;26.50;;
10985;SDS011;5546;48.714;8.738;2022-12-15T15:49:54;55.73;;;32.30;;
10985;SDS011;5546;48.714;8.738;2022-12-15T15:52:23;55.17;;;30.80;;
10985;SDS011;5546;48.714;8.738;2022-12-15T15:54:48;53.07;;;29.50;;
10985;SDS011;5546;48.714;8.738;2022-12-15T15:57:16;71.53;;;38.07;;
10985;SDS011;5546;48.714;8.738;2022-12-15T15:59:42;49.87;;;27.83;;
10985;SDS011;5546;48.714;8.738;2022-12-15T16:02:09;53.90;;;29.80;;
10985;SDS011;5546;48.714;8.738;2022-12-15T16:04:37;44.17;;;26.37;;
10985;SDS011;5546;48.714;8.738;2022-12-15T16:07:21;48.57;;;28.77;;
10985;SDS011;5546;48.714;8.738;2022-12-15T16:09:49;48.83;;;26.50;;
10985;SDS011;5546;48.714;8.738;2022-12-15T16:15:11;45.97;;;27.00;;
10985;SDS011;5546;48.714;8.738;2022-12-15T16:17:38;47.20;;;25.20;;
10985;SDS011;5546;48.714;8.738;2022-12-15T16:20:04;50.07;;;26.40;;
10985;SDS011;5546;48.714;8.738;2022-12-15T16:22:29;46.90;;;26.80;;
10985;SDS011;5546;48.714;8.738;2022-12-15T16:24:57;45.43;;;25.37;;
10985;SDS011;5546;48.714;8.738;2022-12-15T16:27:23;48.30;;;26.33;;
10985;SDS011;5546;48.714;8.738;2022-12-15T16:29:49;45.43;;;26.53;;
10985;SDS011;5546;48.714;8.738;2022-12-15T16:32:14;39.73;;;24.50;;
10985;SDS011;5546;48.714;8.738;2022-12-15T16:34:40;43.97;;;25.90;;
10985;SDS011;5546;48.714;8.738;2022-12-15T16:37:10;46.37;;;25.87;;
10985;SDS011;5546;48.714;8.738;2022-12-15T16:39:48;47.80;;;25.47;;
10985;SDS011;5546;48.714;8.738;2022-12-15T16:42:13;48.87;;;26.37;;
10985;SDS011;5546;48.714;8.738;2022-12-15T16:44:40;50.73;;;26.83;;
10985;SDS011;5546;48.714;8.738;2022-12-15T16:47:05;45.27;;;26.27;;
10985;SDS011;5546;48.714;8.738;2022-12-15T16:49:31;47.83;;;27.27;;
10985;SDS011;5546;48.714;8.738;2022-12-15T16:51:56;43.97;;;26.03;;